Time;durP1;ratioP1;P1;durP2;ratioP2;P2;SDS_P1;SDS_P2;PMS_P1;PMS_P2;Temp;Humidity;BMP_temperature;BMP_pressure;BME280_temperature;BME280_humidity;BME280_pressure;Samples;Min_cycle;Max_cycle;Signal;HPM_P1;HPM_P2
2023/12/14 00:02:07;;;;;;;28.67;13.40;;;;;;;;;;5009775;28;20151;-73
2023/12/14 00:04:34;;;;;;;28.65;13.60;;;;;;;;;;5010578;28;20050;-73
2023/12/14 00:07:00;;;;;;;32.25;13.20;;;;;;;;;;5006056;28;20546;-73
2023/12/14 00:09:27;;;;;;;23.75;12.05;;;;;;;;;;5009327;28;20131;-73
2023/12/14 00:11:53;;;;;;;23.23;12.30;;;;;;;;;;5009492;28;20046;-73
2023/12/14 00:14:20;;;;;;;19.52;11.00;;;;;;;;;;5009173;28;20065;-73
2023/12/14 00:16:46;;;;;;;20.83;11.30;;;;;;;;;;5009240;28;20116;-73
2023/12/14 00:19:12;;;;;;;25.40;12.02;;;;;;;;;;5009234;28;20069;-73
2023/12/14 00:21:39;;;;;;;25.88;12.68;;;;;;;;;;5010839;28;20560;-73
2023/12/14 00:24:06;;;;;;;23.92;11.70;;;;;;;;;;5011992;28;20624;-73
2023/12/14 00:26:32;;;;;;;29.23;12.80;;;;;;;;;;5009888;28;20102;-73
2023/12/14 00:28:59;;;;;;;31.77;13.45;;;;;;;;;;5011005;28;20046;-73
2023/12/14 00:31:27;;;;;;;26.98;13.45;;;;;;;;;;5009604;28;20054;-73
2023/12/14 00:33:54;;;;;;;28.80;13.80;;;;;;;;;;5008998;28;20522;-73
2023/12/14 00:36:23;;;;;;;29.63;13.27;;;;;;;;;;5009203;28;20061;-73
2023/12/14 00:38:49;;;;;;;30.55;13.13;;;;;;;;;;5008771;28;20049;-73
2023/12/14 00:41:16;;;;;;;30.60;13.43;;;;;;;;;;5009330;28;20076;-73
2023/12/14 00:43:42;;;;;;;34.05;15.00;;;;;;;;;;5008764;28;20057;-73
2023/12/14 00:46:09;;;;;;;35.95;14.38;;;;;;;;;;5008987;28;20556;-73
2023/12/14 00:48:36;;;;;;;34.03;16.38;;;;;;;;;;5008870;28;20116;-73
2023/12/14 00:51:02;;;;;;;28.90;14.70;;;;;;;;;;5009027;28;20038;-72
2023/12/14 00:53:29;;;;;;;33.92;15.27;;;;;;;;;;5006986;28;20046;-73
2023/12/14 00:55:55;;;;;;;37.25;15.02;;;;;;;;;;5008597;28;20142;-73
2023/12/14 00:58:22;;;;;;;35.22;16.27;;;;;;;;;;5001415;28;20137;-72
2023/12/14 01:00:48;;;;;;;32.53;15.02;;;;;;;;;;5007339;28;20050;-72
2023/12/14 01:03:15;;;;;;;32.08;15.38;;;;;;;;;;5007479;28;20052;-72
2023/12/14 01:05:41;;;;;;;28.02;14.07;;;;;;;;;;5008028;28;20137;-73
2023/12/14 01:08:08;;;;;;;33.35;14.45;;;;;;;;;;4994647;28;20054;-72
2023/12/14 01:10:35;;;;;;;30.13;13.40;;;;;;;;;;5008184;28;20046;-72
2023/12/14 01:13:02;;;;;;;31.80;14.50;;;;;;;;;;5009288;28;20049;-71
2023/12/14 01:15:28;;;;;;;30.73;15.68;;;;;;;;;;5008313;28;20461;-72
2023/12/14 01:17:55;;;;;;;31.05;14.93;;;;;;;;;;5008560;28;20073;-72
2023/12/14 01:20:21;;;;;;;32.70;16.10;;;;;;;;;;5008609;28;20056;-72
2023/12/14 01:22:48;;;;;;;31.40;14.88;;;;;;;;;;5003794;28;20081;-72
2023/12/14 01:25:14;;;;;;;32.30;15.48;;;;;;;;;;5006731;28;20125;-72
2023/12/14 01:27:41;;;;;;;37.28;16.38;;;;;;;;;;5008092;28;20042;-72
2023/12/14 01:30:07;;;;;;;37.95;16.35;;;;;;;;;;5007659;28;20151;-73
2023/12/14 01:32:34;;;;;;;34.78;16.35;;;;;;;;;;5007977;28;20089;-72
2023/12/14 01:35:01;;;;;;;37.55;15.88;;;;;;;;;;5008075;28;20046;-73
2023/12/14 01:37:27;;;;;;;36.85;18.33;;;;;;;;;;5008072;28;20046;-72
2023/12/14 01:39:54;;;;;;;38.40;16.05;;;;;;;;;;5007121;28;20726;-72
2023/12/14 01:42:20;;;;;;;30.98;16.55;;;;;;;;;;5008336;28;20050;-73
2023/12/14 01:44:47;;;;;;;38.75;17.33;;;;;;;;;;5007632;28;20092;-72
2023/12/14 01:47:13;;;;;;;38.20;16.60;;;;;;;;;;5002094;28;20573;-72
2023/12/14 01:49:41;;;;;;;37.83;16.73;;;;;;;;;;5001755;28;20546;-72
2023/12/14 01:52:08;;;;;;;34.78;16.50;;;;;;;;;;5003981;28;20106;-72
2023/12/14 01:54:34;;;;;;;36.85;17.25;;;;;;;;;;5007532;28;20053;-72
2023/12/14 01:57:01;;;;;;;36.60;17.02;;;;;;;;;;5003233;28;20056;-73
2023/12/14 01:59:27;;;;;;;35.53;16.00;;;;;;;;;;5007961;28;20073;-72
2023/12/14 02:01:56;;;;;;;29.33;14.80;;;;;;;;;;5008045;28;20477;-72
2023/12/14 02:04:23;;;;;;;30.25;13.27;;;;;;;;;;5005015;28;20466;-72
2023/12/14 02:06:50;;;;;;;33.83;14.45;;;;;;;;;;5008037;28;20746;-73
2023/12/14 02:09:17;;;;;;;34.60;15.43;;;;;;;;;;5008586;28;20046;-72
2023/12/14 02:11:43;;;;;;;25.33;13.27;;;;;;;;;;5007152;28;20050;-73
2023/12/14 02:14:10;;;;;;;33.65;14.88;;;;;;;;;;5005938;28;20076;-72
2023/12/14 02:16:38;;;;;;;34.33;14.02;;;;;;;;;;5007267;28;20148;-72
2023/12/14 02:19:05;;;;;;;26.48;13.93;;;;;;;;;;5007478;28;20126;-72
2023/12/14 02:21:31;;;;;;;30.10;15.05;;;;;;;;;;5007325;28;20046;-72
2023/12/14 02:23:58;;;;;;;34.92;15.27;;;;;;;;;;5007371;28;20053;-72
2023/12/14 02:26:24;;;;;;;28.02;13.20;;;;;;;;;;5007336;28;20084;-73
2023/12/14 02:28:51;;;;;;;27.17;11.85;;;;;;;;;;5006921;28;20659;-72
2023/12/14 02:31:19;;;;;;;26.88;11.80;;;;;;;;;;5007305;28;20056;-72
2023/12/14 02:33:45;;;;;;;26.08;11.75;;;;;;;;;;5006779;28;20097;-72
2023/12/14 02:36:11;;;;;;;24.30;11.88;;;;;;;;;;5007425;28;20114;-72
2023/12/14 02:38:38;;;;;;;24.98;11.80;;;;;;;;;;5003220;28;20073;-72
2023/12/14 02:41:05;;;;;;;25.55;11.93;;;;;;;;;;5007712;28;20571;-72
2023/12/14 02:43:31;;;;;;;23.67;11.07;;;;;;;;;;5007687;28;20076;-72
2023/12/14 02:46:01;;;;;;;25.05;11.38;;;;;;;;;;4997835;28;20691;-73
2023/12/14 02:48:31;;;;;;;24.95;11.32;;;;;;;;;;4999438;28;20072;-72
2023/12/14 02:51:00;;;;;;;23.25;12.32;;;;;;;;;;4996096;28;20050;-72
2023/12/14 02:53:26;;;;;;;22.98;11.57;;;;;;;;;;5008149;28;20065;-72
2023/12/14 02:55:53;;;;;;;23.90;12.25;;;;;;;;;;5006454;28;20174;-72
2023/12/14 02:58:20;;;;;;;25.38;11.68;;;;;;;;;;5006675;28;20050;-72
2023/12/14 03:00:46;;;;;;;23.35;11.35;;;;;;;;;;5006774;28;20088;-73
2023/12/14 03:03:13;;;;;;;24.98;13.43;;;;;;;;;;5006623;28;20489;-72
2023/12/14 03:05:39;;;;;;;27.25;13.32;;;;;;;;;;5006718;28;20640;-72
2023/12/14 03:08:06;;;;;;;26.70;13.00;;;;;;;;;;5006709;28;20064;-72
2023/12/14 03:10:32;;;;;;;27.70;12.55;;;;;;;;;;5006318;28;20057;-72
2023/12/14 03:12:59;;;;;;;28.88;13.13;;;;;;;;;;5007014;28;20050;-72
2023/12/14 03:15:26;;;;;;;27.15;13.80;;;;;;;;;;5004064;28;20060;-72
2023/12/14 03:17:52;;;;;;;31.33;14.00;;;;;;;;;;5007264;28;20039;-72
2023/12/14 03:20:18;;;;;;;25.65;12.82;;;;;;;;;;5006567;28;20056;-72
2023/12/14 03:22:45;;;;;;;28.48;13.05;;;;;;;;;;5006926;28;20454;-72
2023/12/14 03:25:11;;;;;;;37.72;14.80;;;;;;;;;;5006620;28;20088;-72
2023/12/14 03:27:38;;;;;;;44.63;17.52;;;;;;;;;;5003531;28;20064;-72
2023/12/14 03:30:07;;;;;;;38.80;17.27;;;;;;;;;;4999460;28;20049;-72
2023/12/14 03:32:34;;;;;;;40.00;17.08;;;;;;;;;;4996781;28;20042;-72
2023/12/14 03:35:02;;;;;;;36.78;16.08;;;;;;;;;;5005904;28;20049;-72
2023/12/14 03:37:28;;;;;;;39.72;16.77;;;;;;;;;;5007296;28;20545;-72
2023/12/14 03:39:55;;;;;;;42.40;18.45;;;;;;;;;;5001036;28;20069;-72
2023/12/14 03:42:22;;;;;;;38.55;16.83;;;;;;;;;;5010205;28;20050;-72
2023/12/14 03:44:48;;;;;;;39.38;16.90;;;;;;;;;;5007664;28;20485;-72
2023/12/14 03:47:15;;;;;;;38.35;16.95;;;;;;;;;;5009819;28;20559;-72
2023/12/14 03:49:41;;;;;;;47.20;18.05;;;;;;;;;;5009252;28;20045;-72
2023/12/14 03:52:08;;;;;;;36.92;16.30;;;;;;;;;;5008790;28;20057;-72
2023/12/14 03:54:34;;;;;;;44.30;18.13;;;;;;;;;;5010101;28;20096;-72
2023/12/14 03:57:01;;;;;;;41.70;18.13;;;;;;;;;;5009288;28;20463;-72
2023/12/14 03:59:27;;;;;;;45.42;18.70;;;;;;;;;;5009841;28;20177;-72
2023/12/14 04:01:54;;;;;;;41.92;17.95;;;;;;;;;;5003485;28;20053;-72
2023/12/14 04:04:20;;;;;;;37.63;18.00;;;;;;;;;;5008466;28;20046;-72
2023/12/14 04:06:46;;;;;;;30.70;16.67;;;;;;;;;;5009811;28;20545;-72
2023/12/14 04:09:13;;;;;;;44.03;18.73;;;;;;;;;;5010817;28;20042;-73
2023/12/14 04:11:39;;;;;;;39.30;17.52;;;;;;;;;;5010108;28;20218;-72
2023/12/14 04:14:06;;;;;;;35.38;17.42;;;;;;;;;;5006206;28;20080;-72
2023/12/14 04:16:32;;;;;;;40.00;16.73;;;;;;;;;;5004801;28;20489;-72
2023/12/14 04:18:59;;;;;;;35.33;16.17;;;;;;;;;;5006746;28;20037;-72
2023/12/14 04:21:25;;;;;;;42.15;17.85;;;;;;;;;;5009150;28;20133;-72
2023/12/14 04:23:52;;;;;;;38.95;16.98;;;;;;;;;;5008989;28;20458;-72
2023/12/14 04:26:18;;;;;;;39.72;17.63;;;;;;;;;;5009581;28;20502;-72
2023/12/14 04:28:46;;;;;;;36.78;16.08;;;;;;;;;;5008996;28;20054;-72
2023/12/14 04:31:12;;;;;;;32.30;15.98;;;;;;;;;;5009583;28;20721;-72
2023/12/14 04:33:39;;;;;;;41.30;17.67;;;;;;;;;;5009225;28;20448;-72
2023/12/14 04:36:06;;;;;;;38.47;16.38;;;;;;;;;;5009543;28;20069;-72
2023/12/14 04:38:33;;;;;;;34.10;16.60;;;;;;;;;;5009399;28;20049;-72
2023/12/14 04:40:59;;;;;;;42.35;16.45;;;;;;;;;;5001224;28;20050;-72
2023/12/14 04:43:29;;;;;;;38.03;17.60;;;;;;;;;;5009573;28;20641;-72
2023/12/14 04:45:55;;;;;;;32.70;16.83;;;;;;;;;;5009005;28;20052;-72
2023/12/14 04:48:22;;;;;;;37.13;17.05;;;;;;;;;;5008961;28;20113;-72
2023/12/14 04:50:48;;;;;;;35.80;15.63;;;;;;;;;;5008753;28;20465;-72
2023/12/14 04:53:15;;;;;;;39.78;19.30;;;;;;;;;;5008895;28;20046;-72
2023/12/14 04:55:42;;;;;;;40.15;17.63;;;;;;;;;;5008383;28;20132;-72
2023/12/14 04:58:11;;;;;;;36.58;17.77;;;;;;;;;;5008996;28;20511;-72
2023/12/14 05:00:38;;;;;;;39.92;16.95;;;;;;;;;;5009001;28;20050;-72
2023/12/14 05:03:04;;;;;;;37.35;15.82;;;;;;;;;;5009051;28;20674;-72
2023/12/14 05:05:31;;;;;;;39.22;17.67;;;;;;;;;;5008381;28;20565;-72
2023/12/14 05:07:57;;;;;;;39.33;16.73;;;;;;;;;;5008240;28;20046;-72
2023/12/14 05:10:24;;;;;;;34.35;16.80;;;;;;;;;;5008301;28;20141;-72
2023/12/14 05:12:50;;;;;;;31.05;15.32;;;;;;;;;;5008347;28;20107;-71
2023/12/14 05:15:17;;;;;;;36.33;16.63;;;;;;;;;;5007209;28;20046;-71
2023/12/14 05:17:45;;;;;;;32.40;14.32;;;;;;;;;;5008383;28;20495;-71
2023/12/14 05:20:11;;;;;;;37.60;17.67;;;;;;;;;;5008352;28;20046;-71
2023/12/14 05:22:37;;;;;;;34.80;15.85;;;;;;;;;;5004183;28;20051;-72
2023/12/14 05:25:05;;;;;;;37.55;14.98;;;;;;;;;;5007553;28;20046;-73
2023/12/14 05:27:31;;;;;;;29.40;13.93;;;;;;;;;;5008470;28;20133;-71
2023/12/14 05:29:58;;;;;;;31.42;14.27;;;;;;;;;;5008134;28;20042;-72
2023/12/14 05:32:24;;;;;;;29.80;12.88;;;;;;;;;;5008230;28;20088;-73
2023/12/14 05:34:51;;;;;;;33.00;14.45;;;;;;;;;;5008068;28;20046;-72
2023/12/14 05:37:17;;;;;;;31.45;14.38;;;;;;;;;;5008119;28;20100;-72
2023/12/14 05:39:45;;;;;;;30.85;14.50;;;;;;;;;;5007850;28;20046;-72
2023/12/14 05:42:11;;;;;;;34.13;15.10;;;;;;;;;;5007753;28;20050;-72
2023/12/14 05:44:38;;;;;;;36.90;16.05;;;;;;;;;;5007965;28;20046;-72
2023/12/14 05:47:04;;;;;;;30.80;14.50;;;;;;;;;;5007848;28;20045;-73
2023/12/14 05:49:31;;;;;;;36.78;16.98;;;;;;;;;;5007305;28;20740;-72
2023/12/14 05:51:58;;;;;;;36.25;14.50;;;;;;;;;;5007737;28;20150;-72
2023/12/14 05:54:25;;;;;;;35.38;15.85;;;;;;;;;;5007345;28;20094;-73
2023/12/14 05:56:51;;;;;;;31.70;12.88;;;;;;;;;;5000639;28;20483;-72
2023/12/14 05:59:17;;;;;;;34.63;15.75;;;;;;;;;;5007443;28;20124;-72
2023/12/14 06:01:44;;;;;;;42.00;16.67;;;;;;;;;;4998602;28;20395;-72
2023/12/14 06:04:10;;;;;;;30.13;15.15;;;;;;;;;;5007980;28;20077;-72
2023/12/14 06:06:40;;;;;;;34.53;16.50;;;;;;;;;;4997977;28;20129;-72
2023/12/14 06:09:09;;;;;;;38.20;17.05;;;;;;;;;;5006396;28;20050;-73
2023/12/14 06:11:36;;;;;;;35.65;16.67;;;;;;;;;;5000083;28;20702;-72
2023/12/14 06:14:03;;;;;;;38.72;16.23;;;;;;;;;;5005589;28;20068;-72
2023/12/14 06:16:29;;;;;;;34.63;15.55;;;;;;;;;;5006771;28;20061;-72
2023/12/14 06:18:56;;;;;;;30.73;14.40;;;;;;;;;;5006147;28;20667;-72
2023/12/14 06:21:25;;;;;;;34.70;14.27;;;;;;;;;;5006840;28;20073;-72
2023/12/14 06:23:59;;;;;;;30.75;16.13;;;;;;;;;;5006515;28;20046;-72
2023/12/14 06:26:26;;;;;;;39.00;15.57;;;;;;;;;;5008844;28;20052;-72
2023/12/14 06:28:52;;;;;;;36.53;15.60;;;;;;;;;;5006560;28;20199;-74
2023/12/14 06:31:22;;;;;;;40.85;15.57;;;;;;;;;;4994592;28;20051;-72
2023/12/14 06:33:48;;;;;;;40.22;15.40;;;;;;;;;;5005464;28;20046;-72
2023/12/14 06:36:18;;;;;;;34.80;14.60;;;;;;;;;;5006453;28;20057;-72
2023/12/14 06:38:44;;;;;;;38.28;17.13;;;;;;;;;;5006115;28;20104;-72
2023/12/14 06:41:21;;;;;;;34.15;15.05;;;;;;;;;;5005803;28;20538;-72
2023/12/14 06:43:48;;;;;;;44.28;16.98;;;;;;;;;;5005970;28;20518;-72
2023/12/14 06:46:14;;;;;;;32.47;14.48;;;;;;;;;;5006297;28;20060;-72
2023/12/14 06:48:41;;;;;;;41.95;17.08;;;;;;;;;;5000565;28;20059;-72
2023/12/14 06:51:08;;;;;;;33.35;15.57;;;;;;;;;;5007399;28;20132;-72
2023/12/14 06:53:34;;;;;;;39.45;17.30;;;;;;;;;;5006811;28;20092;-72
2023/12/14 06:56:01;;;;;;;36.60;17.90;;;;;;;;;;5003264;28;20108;-73
2023/12/14 06:58:27;;;;;;;40.95;16.63;;;;;;;;;;4995930;28;20080;-73
2023/12/14 07:00:54;;;;;;;31.10;14.63;;;;;;;;;;5004302;28;20046;-72
2023/12/14 07:03:20;;;;;;;31.33;14.45;;;;;;;;;;5006207;28;20058;-72
2023/12/14 07:05:47;;;;;;;32.83;16.83;;;;;;;;;;5002032;28;20046;-72
2023/12/14 07:08:13;;;;;;;34.30;15.07;;;;;;;;;;5005832;28;20066;-72
2023/12/14 07:10:43;;;;;;;34.13;15.88;;;;;;;;;;4967117;28;1108785;-72
2023/12/14 07:13:09;;;;;;;39.55;16.85;;;;;;;;;;5007398;28;20638;-72
2023/12/14 07:15:36;;;;;;;36.30;16.40;;;;;;;;;;5007258;28;20049;-72
2023/12/14 07:18:02;;;;;;;34.38;15.52;;;;;;;;;;5006376;28;20065;-72
2023/12/14 07:20:29;;;;;;;37.30;16.75;;;;;;;;;;4996948;28;20049;-72
2023/12/14 07:22:55;;;;;;;35.70;15.18;;;;;;;;;;5006386;28;20058;-72
2023/12/14 07:25:22;;;;;;;34.28;15.63;;;;;;;;;;5006512;28;20073;-72
2023/12/14 07:27:48;;;;;;;31.08;15.45;;;;;;;;;;5006578;28;20088;-72
2023/12/14 07:30:15;;;;;;;32.90;14.82;;;;;;;;;;5006532;28;20042;-72
2023/12/14 07:32:41;;;;;;;30.00;15.07;;;;;;;;;;5006731;28;20643;-72
2023/12/14 07:35:08;;;;;;;34.35;18.13;;;;;;;;;;5006563;28;20115;-72
2023/12/14 07:37:35;;;;;;;32.88;15.43;;;;;;;;;;5006945;28;20042;-72
2023/12/14 07:40:02;;;;;;;26.15;13.00;;;;;;;;;;5006760;28;20104;-72
2023/12/14 07:42:29;;;;;;;29.45;12.77;;;;;;;;;;5005572;28;20104;-72
2023/12/14 07:44:55;;;;;;;32.40;13.75;;;;;;;;;;5007047;28;20545;-72
2023/12/14 07:47:22;;;;;;;35.88;16.40;;;;;;;;;;5009431;28;20053;-72
2023/12/14 07:49:48;;;;;;;32.63;15.18;;;;;;;;;;5007689;28;20049;-72
2023/12/14 07:52:15;;;;;;;35.75;16.17;;;;;;;;;;5006906;28;20129;-72
2023/12/14 07:54:41;;;;;;;32.28;16.08;;;;;;;;;;5006266;28;20545;-72
2023/12/14 07:57:08;;;;;;;32.58;15.23;;;;;;;;;;5006137;28;20052;-72
2023/12/14 07:59:34;;;;;;;37.92;15.55;;;;;;;;;;5006983;28;20081;-72
2023/12/14 08:02:01;;;;;;;33.58;14.85;;;;;;;;;;4998072;28;20145;-72
2023/12/14 08:04:27;;;;;;;30.25;14.68;;;;;;;;;;5006037;28;20455;-72
2023/12/14 08:06:54;;;;;;;27.15;13.95;;;;;;;;;;4995981;28;20039;-72
2023/12/14 08:09:20;;;;;;;29.02;14.65;;;;;;;;;;4995881;28;20135;-72
2023/12/14 08:11:47;;;;;;;32.13;14.50;;;;;;;;;;5006344;28;20586;-72
2023/12/14 08:14:13;;;;;;;29.52;14.23;;;;;;;;;;5009515;28;20057;-72
2023/12/14 08:16:40;;;;;;;28.38;15.05;;;;;;;;;;5009591;28;20069;-72
2023/12/14 08:19:06;;;;;;;29.35;14.98;;;;;;;;;;5009573;28;20137;-71
2023/12/14 08:21:33;;;;;;;25.85;13.32;;;;;;;;;;5010431;28;20046;-72
2023/12/14 08:23:59;;;;;;;28.13;13.70;;;;;;;;;;5009685;28;20042;-71
2023/12/14 08:26:26;;;;;;;25.80;14.95;;;;;;;;;;5009727;28;20042;-72
2023/12/14 08:28:52;;;;;;;28.67;13.73;;;;;;;;;;5009169;28;20121;-71
2023/12/14 08:31:19;;;;;;;28.08;14.90;;;;;;;;;;5009283;28;20060;-74
2023/12/14 08:33:45;;;;;;;24.33;13.55;;;;;;;;;;5009175;28;20516;-72
2023/12/14 08:36:16;;;;;;;28.75;14.23;;;;;;;;;;5006586;28;20534;-72
2023/12/14 08:38:43;;;;;;;26.58;13.20;;;;;;;;;;5008770;28;20380;-72
2023/12/14 08:41:14;;;;;;;28.08;13.15;;;;;;;;;;5008878;28;20053;-72
2023/12/14 08:43:41;;;;;;;28.02;13.48;;;;;;;;;;5009505;28;20049;-72
2023/12/14 08:46:07;;;;;;;30.13;13.45;;;;;;;;;;5009631;28;20057;-72
2023/12/14 08:48:35;;;;;;;24.75;13.40;;;;;;;;;;5009246;28;20198;-71
2023/12/14 08:51:02;;;;;;;28.13;13.43;;;;;;;;;;4996422;28;20054;-72
2023/12/14 08:53:29;;;;;;;26.20;13.13;;;;;;;;;;5008074;28;20076;-71
2023/12/14 08:55:56;;;;;;;27.13;15.02;;;;;;;;;;5007091;28;20052;-71
2023/12/14 08:58:22;;;;;;;28.13;13.15;;;;;;;;;;5009029;28;20248;-72
2023/12/14 09:00:52;;;;;;;27.13;15.07;;;;;;;;;;5009153;28;20038;-71
2023/12/14 09:03:19;;;;;;;28.02;15.55;;;;;;;;;;5009138;28;20080;-72
2023/12/14 09:05:46;;;;;;;27.45;13.80;;;;;;;;;;5004399;28;20478;-71
2023/12/14 09:08:13;;;;;;;25.42;13.25;;;;;;;;;;5010271;28;20050;-72
2023/12/14 09:10:39;;;;;;;33.95;15.35;;;;;;;;;;5011846;28;20054;-72
2023/12/14 09:13:06;;;;;;;33.63;15.57;;;;;;;;;;5009117;28;20042;-72
2023/12/14 09:15:33;;;;;;;26.92;14.80;;;;;;;;;;5008676;28;20103;-74
2023/12/14 09:18:00;;;;;;;33.75;15.05;;;;;;;;;;5008570;28;20080;-72
2023/12/14 09:20:26;;;;;;;32.88;15.68;;;;;;;;;;5008517;28;20481;-72
2023/12/14 09:22:53;;;;;;;31.70;16.58;;;;;;;;;;5007811;28;20137;-73
2023/12/14 09:25:20;;;;;;;33.38;15.80;;;;;;;;;;5003947;28;20046;-72
2023/12/14 09:27:46;;;;;;;34.22;17.13;;;;;;;;;;5002006;28;20490;-72
2023/12/14 09:30:13;;;;;;;35.97;16.38;;;;;;;;;;5008579;28;20821;-72
2023/12/14 09:32:39;;;;;;;36.63;17.25;;;;;;;;;;5010360;28;20082;-73
2023/12/14 09:35:06;;;;;;;34.22;16.95;;;;;;;;;;5011045;28;20136;-73
2023/12/14 09:37:33;;;;;;;35.28;16.70;;;;;;;;;;5007673;28;20456;-73
2023/12/14 09:40:00;;;;;;;37.25;17.20;;;;;;;;;;4999982;28;20053;-73
2023/12/14 09:42:26;;;;;;;33.60;16.00;;;;;;;;;;5008382;28;20042;-73
2023/12/14 09:44:53;;;;;;;37.28;17.38;;;;;;;;;;5005729;28;20050;-71
2023/12/14 09:47:19;;;;;;;29.67;15.93;;;;;;;;;;5007606;28;20058;-72
2023/12/14 09:49:47;;;;;;;29.83;14.02;;;;;;;;;;4990854;28;21000;-73
2023/12/14 09:52:14;;;;;;;34.35;16.92;;;;;;;;;;4999804;28;20487;-73
2023/12/14 09:54:40;;;;;;;30.27;15.00;;;;;;;;;;5007918;28;20533;-74
2023/12/14 09:57:07;;;;;;;31.92;16.33;;;;;;;;;;5004851;28;20049;-72
2023/12/14 09:59:33;;;;;;;38.08;16.10;;;;;;;;;;5006625;28;20041;-73
2023/12/14 10:02:11;;;;;;;34.35;17.48;;;;;;;;;;5006939;28;20046;-73
2023/12/14 10:04:37;;;;;;;31.58;16.55;;;;;;;;;;5008026;28;20576;-73
2023/12/14 10:07:07;;;;;;;37.28;16.55;;;;;;;;;;5003167;28;20049;-73
2023/12/14 10:09:35;;;;;;;29.27;15.65;;;;;;;;;;5008264;28;20046;-74
2023/12/14 10:12:04;;;;;;;30.80;15.38;;;;;;;;;;5007579;28;20057;-72
2023/12/14 10:14:30;;;;;;;37.10;16.83;;;;;;;;;;5007834;28;20046;-72
2023/12/14 10:16:57;;;;;;;35.28;16.92;;;;;;;;;;5005331;28;20610;-72
2023/12/14 10:19:29;;;;;;;40.70;18.52;;;;;;;;;;4998589;28;20129;-72
2023/12/14 10:21:55;;;;;;;35.45;17.65;;;;;;;;;;5007622;28;20054;-73
2023/12/14 10:24:22;;;;;;;41.13;17.60;;;;;;;;;;5007202;28;20073;-69
2023/12/14 10:26:50;;;;;;;36.17;17.10;;;;;;;;;;5007857;28;20046;-69
2023/12/14 10:29:17;;;;;;;32.05;16.05;;;;;;;;;;5007918;28;20060;-69
2023/12/14 10:31:44;;;;;;;41.45;17.88;;;;;;;;;;5007549;28;20667;-71
2023/12/14 10:34:12;;;;;;;36.42;16.70;;;;;;;;;;5006947;28;20611;-71
2023/12/14 10:36:40;;;;;;;38.25;16.98;;;;;;;;;;5007406;28;20046;-71
2023/12/14 10:39:08;;;;;;;36.58;18.52;;;;;;;;;;4997315;28;20050;-71
2023/12/14 10:41:36;;;;;;;39.88;18.38;;;;;;;;;;5007267;28;20137;-71
2023/12/14 10:44:03;;;;;;;33.72;17.00;;;;;;;;;;5006810;28;20135;-71
2023/12/14 10:46:50;;;;;;;36.47;17.60;;;;;;;;;;5001152;28;20609;-72
2023/12/14 10:49:17;;;;;;;38.55;18.13;;;;;;;;;;5002958;28;20137;-71
2023/12/14 10:51:44;;;;;;;38.22;18.02;;;;;;;;;;5007668;28;20088;-72
2023/12/14 10:54:14;;;;;;;41.70;18.85;;;;;;;;;;5002509;28;20070;-71
2023/12/14 10:56:41;;;;;;;38.67;17.77;;;;;;;;;;5006866;28;20050;-73
2023/12/14 10:59:07;;;;;;;43.90;20.17;;;;;;;;;;5004950;28;20049;-71
2023/12/14 11:01:36;;;;;;;41.08;18.95;;;;;;;;;;5007313;28;20093;-71
2023/12/14 11:04:03;;;;;;;46.78;19.23;;;;;;;;;;5006420;28;20068;-72
2023/12/14 11:06:35;;;;;;;36.38;18.23;;;;;;;;;;5007097;28;20108;-72
2023/12/14 11:09:06;;;;;;;46.22;20.63;;;;;;;;;;5005966;28;20053;-72
2023/12/14 11:11:47;;;;;;;49.25;20.00;;;;;;;;;;5004056;28;20058;-73
2023/12/14 11:14:13;;;;;;;45.65;20.60;;;;;;;;;;5006414;28;20058;-71
2023/12/14 11:16:44;;;;;;;51.30;19.98;;;;;;;;;;5006919;28;20099;-71
2023/12/14 11:19:23;;;;;;;44.73;18.47;;;;;;;;;;5006577;28;20038;-71
2023/12/14 11:22:04;;;;;;;47.33;21.30;;;;;;;;;;5006905;28;20289;-72
2023/12/14 11:24:31;;;;;;;;;;;;;;;;;;5008457;28;20056;-72
2023/12/14 11:26:57;;;;;;;46.50;21.55;;;;;;;;;;5009771;28;19936;-73
2023/12/14 11:29:25;;;;;;;49.50;21.92;;;;;;;;;;4994284;28;20458;-71
2023/12/14 11:31:51;;;;;;;48.17;22.30;;;;;;;;;;5004305;28;20053;-72
2023/12/14 11:34:18;;;;;;;53.05;24.35;;;;;;;;;;5002904;28;20042;-70
2023/12/14 11:36:45;;;;;;;51.97;24.17;;;;;;;;;;5007007;28;20042;-70
2023/12/14 11:39:12;;;;;;;47.20;21.10;;;;;;;;;;5006652;28;20054;-71
2023/12/14 11:41:39;;;;;;;44.80;21.00;;;;;;;;;;5007029;28;20096;-71
2023/12/14 11:44:05;;;;;;;47.45;21.90;;;;;;;;;;5006529;28;20537;-71
2023/12/14 11:46:32;;;;;;;50.05;19.80;;;;;;;;;;5008098;28;20046;-71
2023/12/14 11:48:59;;;;;;;50.22;21.77;;;;;;;;;;5007380;28;20046;-70
2023/12/14 11:51:26;;;;;;;48.95;22.33;;;;;;;;;;5010375;28;20053;-70
2023/12/14 11:53:52;;;;;;;49.25;22.65;;;;;;;;;;5007001;28;20569;-71
2023/12/14 11:56:19;;;;;;;45.80;20.08;;;;;;;;;;5009991;28;20054;-71
2023/12/14 11:58:47;;;;;;;53.83;20.92;;;;;;;;;;5009622;28;20046;-71
2023/12/14 12:01:14;;;;;;;44.42;20.17;;;;;;;;;;5010056;28;20060;-71
2023/12/14 12:03:41;;;;;;;43.00;19.42;;;;;;;;;;5009638;28;20144;-72
2023/12/14 12:06:07;;;;;;;45.80;18.67;;;;;;;;;;5010222;28;20108;-72
2023/12/14 12:08:40;;;;;;;41.03;19.95;;;;;;;;;;5007780;28;20071;-71
2023/12/14 12:11:07;;;;;;;47.42;21.00;;;;;;;;;;5005535;28;20599;-72
2023/12/14 12:13:34;;;;;;;44.67;19.73;;;;;;;;;;4997733;28;20053;-72
2023/12/14 12:16:01;;;;;;;43.70;21.02;;;;;;;;;;4993255;28;20483;-70
2023/12/14 12:18:28;;;;;;;46.25;22.40;;;;;;;;;;5005056;28;20415;-72
2023/12/14 12:20:54;;;;;;;41.05;21.83;;;;;;;;;;5008271;28;20034;-72
2023/12/14 12:23:21;;;;;;;42.83;20.42;;;;;;;;;;5006865;28;20053;-73
2023/12/14 12:25:47;;;;;;;47.60;21.60;;;;;;;;;;5011674;28;20084;-73
2023/12/14 12:28:14;;;;;;;43.03;20.83;;;;;;;;;;5009224;28;20057;-74
2023/12/14 12:30:41;;;;;;;49.95;21.42;;;;;;;;;;5008571;28;20394;-73
2023/12/14 12:33:08;;;;;;;48.78;21.70;;;;;;;;;;5009241;28;20054;-73
2023/12/14 12:35:34;;;;;;;41.10;20.52;;;;;;;;;;5009232;28;20049;-73
2023/12/14 12:38:01;;;;;;;43.90;20.17;;;;;;;;;;5009971;28;20050;-73
2023/12/14 12:40:30;;;;;;;50.08;22.48;;;;;;;;;;5009188;28;20053;-74
2023/12/14 12:42:57;;;;;;;50.38;23.83;;;;;;;;;;5009550;28;20045;-73
2023/12/14 12:45:27;;;;;;;48.03;22.92;;;;;;;;;;5009112;28;20056;-71
2023/12/14 12:47:54;;;;;;;43.70;20.43;;;;;;;;;;5009277;28;20183;-74
2023/12/14 12:50:21;;;;;;;43.65;20.70;;;;;;;;;;5009392;28;20046;-71
2023/12/14 12:52:48;;;;;;;44.47;19.27;;;;;;;;;;5009710;28;20053;-71
2023/12/14 12:55:15;;;;;;;49.38;20.77;;;;;;;;;;5008964;28;20046;-74
2023/12/14 12:57:42;;;;;;;41.95;19.98;;;;;;;;;;5008806;28;20053;-72
2023/12/14 13:00:12;;;;;;;44.38;20.17;;;;;;;;;;5008769;28;20104;-71
2023/12/14 13:02:39;;;;;;;42.15;20.02;;;;;;;;;;5008804;28;20162;-72
2023/12/14 13:05:07;;;;;;;42.40;19.95;;;;;;;;;;5008600;28;20073;-71
2023/12/14 13:07:36;;;;;;;42.80;21.80;;;;;;;;;;5001347;28;20057;-73
2023/12/14 13:10:05;;;;;;;39.35;18.55;;;;;;;;;;5008728;28;20049;-71
2023/12/14 13:12:50;;;;;;;43.80;19.98;;;;;;;;;;5004104;28;20145;-72
2023/12/14 13:15:18;;;;;;;39.40;19.10;;;;;;;;;;5007149;28;20041;-71
2023/12/14 13:17:45;;;;;;;40.85;20.02;;;;;;;;;;5008509;28;20053;-71
2023/12/14 13:20:11;;;;;;;37.33;19.65;;;;;;;;;;5007971;28;20056;-71
2023/12/14 13:22:39;;;;;;;42.13;20.23;;;;;;;;;;5006596;28;20054;-70
2023/12/14 13:25:06;;;;;;;42.53;20.75;;;;;;;;;;5000757;28;20060;-70
2023/12/14 13:27:32;;;;;;;40.40;20.65;;;;;;;;;;5008503;28;20069;-71
2023/12/14 13:29:59;;;;;;;38.60;19.83;;;;;;;;;;5008060;28;20056;-70
2023/12/14 13:32:25;;;;;;;37.83;19.42;;;;;;;;;;5008727;28;20603;-73
2023/12/14 13:34:52;;;;;;;43.00;18.63;;;;;;;;;;5007871;28;20055;-71
2023/12/14 13:37:18;;;;;;;36.63;17.80;;;;;;;;;;5008690;28;20588;-71
2023/12/14 13:39:47;;;;;;;43.67;16.95;;;;;;;;;;5007907;28;20045;-71
2023/12/14 13:42:15;;;;;;;33.30;17.25;;;;;;;;;;5008375;28;20082;-71
2023/12/14 13:44:42;;;;;;;33.70;17.80;;;;;;;;;;5008075;28;20050;-71
2023/12/14 13:47:08;;;;;;;35.97;17.52;;;;;;;;;;5007864;28;20408;-70
2023/12/14 13:49:35;;;;;;;36.15;17.70;;;;;;;;;;5007548;28;20050;-70
2023/12/14 13:52:01;;;;;;;39.10;18.17;;;;;;;;;;4999961;28;20637;-70
2023/12/14 13:54:28;;;;;;;37.70;18.02;;;;;;;;;;4995868;28;20050;-70
2023/12/14 13:56:54;;;;;;;33.03;16.55;;;;;;;;;;5008103;28;20042;-70
2023/12/14 13:59:21;;;;;;;36.47;18.98;;;;;;;;;;5007017;28;20611;-72
2023/12/14 14:01:51;;;;;;;37.20;18.98;;;;;;;;;;4997832;28;20133;-72
2023/12/14 14:04:18;;;;;;;39.95;18.15;;;;;;;;;;5007989;28;20656;-71
2023/12/14 14:06:44;;;;;;;26.77;16.17;;;;;;;;;;5006367;28;20081;-67
2023/12/14 14:09:11;;;;;;;29.92;14.95;;;;;;;;;;5000802;28;20050;-75
2023/12/14 14:11:37;;;;;;;34.65;19.10;;;;;;;;;;5007252;28;20541;-71
2023/12/14 14:14:04;;;;;;;90.82;52.67;;;;;;;;;;5007332;28;20132;-73
2023/12/14 14:16:31;;;;;;;41.58;23.25;;;;;;;;;;5003864;28;20046;-70